sensor_id;sensor_type;location;lat;lon;timestamp;temperature;humidity
65291;SHT30;51893;59.754;10.110;2022-07-10T00:00:46;14.48;52.02
65291;SHT30;51893;59.754;10.110;2022-07-10T00:03:13;14.49;51.89
65291;SHT30;51893;59.754;10.110;2022-07-10T00:05:40;14.47;51.97
65291;SHT30;51893;59.754;10.110;2022-07-10T00:08:06;14.45;51.92
65291;SHT30;51893;59.754;10.110;2022-07-10T00:10:33;14.46;51.87
65291;SHT30;51893;59.754;10.110;2022-07-10T00:12:59;14.53;51.36
65291;SHT30;51893;59.754;10.110;2022-07-10T00:15:26;14.62;51.00
65291;SHT30;51893;59.754;10.110;2022-07-10T00:17:52;14.69;50.75
65291;SHT30;51893;59.754;10.110;2022-07-10T00:20:19;14.73;50.65
65291;SHT30;51893;59.754;10.110;2022-07-10T00:22:45;14.75;50.72
65291;SHT30;51893;59.754;10.110;2022-07-10T00:25:12;14.75;50.74
65291;SHT30;51893;59.754;10.110;2022-07-10T00:27:40;14.74;50.95
65291;SHT30;51893;59.754;10.110;2022-07-10T00:30:11;14.68;51.15
65291;SHT30;51893;59.754;10.110;2022-07-10T00:32:37;14.69;50.88
65291;SHT30;51893;59.754;10.110;2022-07-10T00:35:05;14.70;50.90
65291;SHT30;51893;59.754;10.110;2022-07-10T00:37:33;14.68;51.03
65291;SHT30;51893;59.754;10.110;2022-07-10T00:40:00;14.70;51.01
65291;SHT30;51893;59.754;10.110;2022-07-10T00:42:27;14.70;51.03
65291;SHT30;51893;59.754;10.110;2022-07-10T00:44:53;14.67;50.97
65291;SHT30;51893;59.754;10.110;2022-07-10T00:47:20;14.69;50.72
65291;SHT30;51893;59.754;10.110;2022-07-10T00:49:46;14.65;51.31
65291;SHT30;51893;59.754;10.110;2022-07-10T00:52:14;14.58;51.43
65291;SHT30;51893;59.754;10.110;2022-07-10T00:54:46;14.59;51.03
65291;SHT30;51893;59.754;10.110;2022-07-10T00:57:18;14.54;51.45
65291;SHT30;51893;59.754;10.110;2022-07-10T00:59:46;14.45;51.95
65291;SHT30;51893;59.754;10.110;2022-07-10T01:02:15;14.30;52.76
65291;SHT30;51893;59.754;10.110;2022-07-10T01:04:43;14.12;53.65
65291;SHT30;51893;59.754;10.110;2022-07-10T01:07:10;13.93;53.84
65291;SHT30;51893;59.754;10.110;2022-07-10T01:09:36;13.85;54.00
65291;SHT30;51893;59.754;10.110;2022-07-10T01:12:03;13.82;53.87
65291;SHT30;51893;59.754;10.110;2022-07-10T01:14:31;13.78;53.84
65291;SHT30;51893;59.754;10.110;2022-07-10T01:16:58;13.74;54.25
65291;SHT30;51893;59.754;10.110;2022-07-10T01:19:25;13.73;54.14
65291;SHT30;51893;59.754;10.110;2022-07-10T01:21:52;13.74;54.17
65291;SHT30;51893;59.754;10.110;2022-07-10T01:24:18;13.75;54.17
65291;SHT30;51893;59.754;10.110;2022-07-10T01:26:45;13.81;54.03
65291;SHT30;51893;59.754;10.110;2022-07-10T01:29:11;13.86;54.09
65291;SHT30;51893;59.754;10.110;2022-07-10T01:31:38;13.85;53.69
65291;SHT30;51893;59.754;10.110;2022-07-10T01:34:08;13.92;52.93
65291;SHT30;51893;59.754;10.110;2022-07-10T01:36:36;13.98;52.65
65291;SHT30;51893;59.754;10.110;2022-07-10T01:39:03;13.96;53.13
65291;SHT30;51893;59.754;10.110;2022-07-10T01:41:33;13.90;53.48
65291;SHT30;51893;59.754;10.110;2022-07-10T01:44:00;13.85;53.47
65291;SHT30;51893;59.754;10.110;2022-07-10T01:46:27;13.85;53.64
65291;SHT30;51893;59.754;10.110;2022-07-10T01:48:54;13.85;53.69
65291;SHT30;51893;59.754;10.110;2022-07-10T01:51:21;13.85;53.67
65291;SHT30;51893;59.754;10.110;2022-07-10T01:53:48;13.85;53.52
65291;SHT30;51893;59.754;10.110;2022-07-10T01:56:15;13.87;53.26
65291;SHT30;51893;59.754;10.110;2022-07-10T01:58:42;13.88;53.28
65291;SHT30;51893;59.754;10.110;2022-07-10T02:01:09;13.88;53.41
65291;SHT30;51893;59.754;10.110;2022-07-10T02:03:37;13.84;53.53
65291;SHT30;51893;59.754;10.110;2022-07-10T02:06:23;13.80;53.67
65291;SHT30;51893;59.754;10.110;2022-07-10T02:08:49;13.75;53.83
65291;SHT30;51893;59.754;10.110;2022-07-10T02:11:16;13.74;53.69
65291;SHT30;51893;59.754;10.110;2022-07-10T02:13:42;13.72;53.68
65291;SHT30;51893;59.754;10.110;2022-07-10T02:16:09;13.76;53.51
65291;SHT30;51893;59.754;10.110;2022-07-10T02:18:37;13.75;53.43
65291;SHT30;51893;59.754;10.110;2022-07-10T02:21:05;13.76;53.43
65291;SHT30;51893;59.754;10.110;2022-07-10T02:23:32;13.75;53.51
65291;SHT30;51893;59.754;10.110;2022-07-10T02:26:00;13.70;53.87
65291;SHT30;51893;59.754;10.110;2022-07-10T02:28:27;13.63;54.10
65291;SHT30;51893;59.754;10.110;2022-07-10T02:30:54;13.63;53.87
65291;SHT30;51893;59.754;10.110;2022-07-10T02:33:20;13.64;53.75
65291;SHT30;51893;59.754;10.110;2022-07-10T02:35:47;13.60;53.99
65291;SHT30;51893;59.754;10.110;2022-07-10T02:38:13;13.50;54.88
65291;SHT30;51893;59.754;10.110;2022-07-10T02:40:40;13.28;55.80
65291;SHT30;51893;59.754;10.110;2022-07-10T02:43:06;13.13;55.98
65291;SHT30;51893;59.754;10.110;2022-07-10T02:45:33;13.03;56.30
65291;SHT30;51893;59.754;10.110;2022-07-10T02:47:59;12.97;56.13
65291;SHT30;51893;59.754;10.110;2022-07-10T02:50:25;12.97;56.02
65291;SHT30;51893;59.754;10.110;2022-07-10T02:52:53;13.02;55.91
65291;SHT30;51893;59.754;10.110;2022-07-10T02:55:19;13.08;55.60
65291;SHT30;51893;59.754;10.110;2022-07-10T02:57:45;13.18;55.34
65291;SHT30;51893;59.754;10.110;2022-07-10T03:00:12;13.28;54.88
65291;SHT30;51893;59.754;10.110;2022-07-10T03:02:39;13.36;54.81
65291;SHT30;51893;59.754;10.110;2022-07-10T03:05:06;13.32;55.35
65291;SHT30;51893;59.754;10.110;2022-07-10T03:07:33;13.23;55.49
65291;SHT30;51893;59.754;10.110;2022-07-10T03:10:00;13.17;56.02
65291;SHT30;51893;59.754;10.110;2022-07-10T03:12:26;13.16;55.48
65291;SHT30;51893;59.754;10.110;2022-07-10T03:14:52;13.24;55.01
65291;SHT30;51893;59.754;10.110;2022-07-10T03:17:19;13.31;54.89
65291;SHT30;51893;59.754;10.110;2022-07-10T03:19:45;13.38;54.66
65291;SHT30;51893;59.754;10.110;2022-07-10T03:22:12;13.46;54.33
65291;SHT30;51893;59.754;10.110;2022-07-10T03:24:38;13.52;54.09
65291;SHT30;51893;59.754;10.110;2022-07-10T03:27:04;13.57;53.87
65291;SHT30;51893;59.754;10.110;2022-07-10T03:29:31;13.58;54.16
65291;SHT30;51893;59.754;10.110;2022-07-10T03:31:58;13.50;54.90
65291;SHT30;51893;59.754;10.110;2022-07-10T03:34:24;13.41;55.28
65291;SHT30;51893;59.754;10.110;2022-07-10T03:36:51;13.40;54.95
65291;SHT30;51893;59.754;10.110;2022-07-10T03:39:17;13.39;55.14
65291;SHT30;51893;59.754;10.110;2022-07-10T03:41:44;13.34;55.52
65291;SHT30;51893;59.754;10.110;2022-07-10T03:44:11;13.32;55.70
65291;SHT30;51893;59.754;10.110;2022-07-10T03:46:37;13.30;55.85
65291;SHT30;51893;59.754;10.110;2022-07-10T03:49:04;13.35;55.47
65291;SHT30;51893;59.754;10.110;2022-07-10T03:51:30;13.46;54.85
65291;SHT30;51893;59.754;10.110;2022-07-10T03:53:57;13.59;54.44
65291;SHT30;51893;59.754;10.110;2022-07-10T03:56:23;13.68;54.04
65291;SHT30;51893;59.754;10.110;2022-07-10T03:59:08;13.76;53.78
65291;SHT30;51893;59.754;10.110;2022-07-10T04:01:34;13.84;53.66
65291;SHT30;51893;59.754;10.110;2022-07-10T04:04:01;13.89;53.65
65291;SHT30;51893;59.754;10.110;2022-07-10T04:06:28;13.93;53.56
65291;SHT30;51893;59.754;10.110;2022-07-10T04:08:55;13.99;53.36
65291;SHT30;51893;59.754;10.110;2022-07-10T04:11:21;14.05;53.33
65291;SHT30;51893;59.754;10.110;2022-07-10T04:13:47;14.09;53.05
65291;SHT30;51893;59.754;10.110;2022-07-10T04:16:14;14.12;52.83
65291;SHT30;51893;59.754;10.110;2022-07-10T04:18:40;14.18;52.66
65291;SHT30;51893;59.754;10.110;2022-07-10T04:21:09;14.22;52.56
65291;SHT30;51893;59.754;10.110;2022-07-10T04:23:35;14.27;52.37
65291;SHT30;51893;59.754;10.110;2022-07-10T04:26:01;14.33;52.06
65291;SHT30;51893;59.754;10.110;2022-07-10T04:28:28;14.39;51.89
65291;SHT30;51893;59.754;10.110;2022-07-10T04:30:54;14.45;51.91
65291;SHT30;51893;59.754;10.110;2022-07-10T04:33:21;14.48;51.87
65291;SHT30;51893;59.754;10.110;2022-07-10T04:35:47;14.52;51.93
65291;SHT30;51893;59.754;10.110;2022-07-10T04:38:14;14.55;51.57
65291;SHT30;51893;59.754;10.110;2022-07-10T04:40:41;14.57;51.47
65291;SHT30;51893;59.754;10.110;2022-07-10T04:43:07;14.59;51.50
65291;SHT30;51893;59.754;10.110;2022-07-10T04:45:36;14.66;51.07
65291;SHT30;51893;59.754;10.110;2022-07-10T04:48:05;14.74;51.14
65291;SHT30;51893;59.754;10.110;2022-07-10T04:50:32;14.82;51.30
65291;SHT30;51893;59.754;10.110;2022-07-10T04:52:58;14.90;51.07
65291;SHT30;51893;59.754;10.110;2022-07-10T04:55:25;14.97;50.77
65291;SHT30;51893;59.754;10.110;2022-07-10T04:57:51;15.02;50.46
65291;SHT30;51893;59.754;10.110;2022-07-10T05:00:18;15.12;50.24
65291;SHT30;51893;59.754;10.110;2022-07-10T05:02:45;15.19;49.93
65291;SHT30;51893;59.754;10.110;2022-07-10T05:05:11;15.24;49.78
65291;SHT30;51893;59.754;10.110;2022-07-10T05:07:38;15.30;49.76
65291;SHT30;51893;59.754;10.110;2022-07-10T05:10:05;15.35;49.46
65291;SHT30;51893;59.754;10.110;2022-07-10T05:12:32;15.40;49.54
65291;SHT30;51893;59.754;10.110;2022-07-10T05:14:58;15.45;49.56
65291;SHT30;51893;59.754;10.110;2022-07-10T05:17:26;15.49;49.44
65291;SHT30;51893;59.754;10.110;2022-07-10T05:19:54;15.55;49.39
65291;SHT30;51893;59.754;10.110;2022-07-10T05:22:22;15.57;49.20
65291;SHT30;51893;59.754;10.110;2022-07-10T05:24:50;15.61;49.25
65291;SHT30;51893;59.754;10.110;2022-07-10T05:27:17;15.63;48.76
65291;SHT30;51893;59.754;10.110;2022-07-10T05:29:46;15.64;49.08
65291;SHT30;51893;59.754;10.110;2022-07-10T05:32:13;15.65;49.10
65291;SHT30;51893;59.754;10.110;2022-07-10T05:34:40;15.71;49.61
65291;SHT30;51893;59.754;10.110;2022-07-10T05:37:07;15.80;49.44
65291;SHT30;51893;59.754;10.110;2022-07-10T05:39:33;15.86;49.42
65291;SHT30;51893;59.754;10.110;2022-07-10T05:42:00;15.92;49.21
65291;SHT30;51893;59.754;10.110;2022-07-10T05:44:27;15.99;48.60
65291;SHT30;51893;59.754;10.110;2022-07-10T05:46:53;16.03;48.39
65291;SHT30;51893;59.754;10.110;2022-07-10T05:49:20;16.12;48.48
65291;SHT30;51893;59.754;10.110;2022-07-10T05:51:47;16.18;47.96
65291;SHT30;51893;59.754;10.110;2022-07-10T05:54:13;16.25;48.00
65291;SHT30;51893;59.754;10.110;2022-07-10T05:56:40;16.33;47.54
65291;SHT30;51893;59.754;10.110;2022-07-10T05:59:06;16.38;46.68
65291;SHT30;51893;59.754;10.110;2022-07-10T06:01:33;16.45;47.06
65291;SHT30;51893;59.754;10.110;2022-07-10T06:03:59;16.50;47.32
65291;SHT30;51893;59.754;10.110;2022-07-10T06:06:26;16.55;46.94
65291;SHT30;51893;59.754;10.110;2022-07-10T06:08:52;16.60;46.89
65291;SHT30;51893;59.754;10.110;2022-07-10T06:11:18;16.66;46.38
65291;SHT30;51893;59.754;10.110;2022-07-10T06:13:45;16.76;45.77
65291;SHT30;51893;59.754;10.110;2022-07-10T06:16:11;16.84;45.98
65291;SHT30;51893;59.754;10.110;2022-07-10T06:18:38;16.91;45.98
65291;SHT30;51893;59.754;10.110;2022-07-10T06:21:05;16.95;45.40
65291;SHT30;51893;59.754;10.110;2022-07-10T06:23:31;16.96;44.72
65291;SHT30;51893;59.754;10.110;2022-07-10T06:25:58;16.99;44.95
65291;SHT30;51893;59.754;10.110;2022-07-10T06:28:24;17.06;45.77
65291;SHT30;51893;59.754;10.110;2022-07-10T06:30:50;17.13;46.13
65291;SHT30;51893;59.754;10.110;2022-07-10T06:33:25;17.20;45.87
65291;SHT30;51893;59.754;10.110;2022-07-10T06:35:52;17.22;44.65
65291;SHT30;51893;59.754;10.110;2022-07-10T06:38:18;17.24;44.90
65291;SHT30;51893;59.754;10.110;2022-07-10T06:40:44;17.29;45.24
65291;SHT30;51893;59.754;10.110;2022-07-10T06:43:13;17.37;44.96
65291;SHT30;51893;59.754;10.110;2022-07-10T06:45:40;17.42;44.85
65291;SHT30;51893;59.754;10.110;2022-07-10T06:48:07;17.39;44.57
65291;SHT30;51893;59.754;10.110;2022-07-10T06:50:34;17.42;44.73
65291;SHT30;51893;59.754;10.110;2022-07-10T06:53:01;17.47;44.31
65291;SHT30;51893;59.754;10.110;2022-07-10T06:55:29;17.53;44.17
65291;SHT30;51893;59.754;10.110;2022-07-10T06:57:57;17.52;44.06
65291;SHT30;51893;59.754;10.110;2022-07-10T07:00:25;17.53;44.15
65291;SHT30;51893;59.754;10.110;2022-07-10T07:02:52;17.59;44.21
65291;SHT30;51893;59.754;10.110;2022-07-10T07:05:18;17.66;44.18
65291;SHT30;51893;59.754;10.110;2022-07-10T07:07:45;17.78;45.27
65291;SHT30;51893;59.754;10.110;2022-07-10T07:10:12;17.87;44.35
65291;SHT30;51893;59.754;10.110;2022-07-10T07:12:39;17.96;43.76
65291;SHT30;51893;59.754;10.110;2022-07-10T07:15:05;18.02;42.68
65291;SHT30;51893;59.754;10.110;2022-07-10T07:17:38;18.02;42.97
65291;SHT30;51893;59.754;10.110;2022-07-10T07:20:25;18.14;43.00
65291;SHT30;51893;59.754;10.110;2022-07-10T07:23:11;18.19;42.61
65291;SHT30;51893;59.754;10.110;2022-07-10T07:25:38;18.24;42.77
65291;SHT30;51893;59.754;10.110;2022-07-10T07:28:08;18.34;43.03
65291;SHT30;51893;59.754;10.110;2022-07-10T07:30:36;18.40;41.65
65291;SHT30;51893;59.754;10.110;2022-07-10T07:33:02;18.44;41.66
65291;SHT30;51893;59.754;10.110;2022-07-10T07:35:29;18.44;41.49
65291;SHT30;51893;59.754;10.110;2022-07-10T07:37:55;18.47;41.74
65291;SHT30;51893;59.754;10.110;2022-07-10T07:40:22;18.51;41.76
65291;SHT30;51893;59.754;10.110;2022-07-10T07:42:50;18.59;42.24
65291;SHT30;51893;59.754;10.110;2022-07-10T07:45:21;18.71;41.70
65291;SHT30;51893;59.754;10.110;2022-07-10T07:47:49;18.78;41.43
65291;SHT30;51893;59.754;10.110;2022-07-10T07:50:22;18.84;41.54
65291;SHT30;51893;59.754;10.110;2022-07-10T07:52:52;18.92;40.96
65291;SHT30;51893;59.754;10.110;2022-07-10T07:55:20;18.97;40.32
65291;SHT30;51893;59.754;10.110;2022-07-10T07:57:48;19.01;39.94
65291;SHT30;51893;59.754;10.110;2022-07-10T08:00:19;19.11;40.48
65291;SHT30;51893;59.754;10.110;2022-07-10T08:02:49;19.24;40.25
65291;SHT30;51893;59.754;10.110;2022-07-10T08:05:17;19.29;39.99
65291;SHT30;51893;59.754;10.110;2022-07-10T08:07:46;19.21;40.11
65291;SHT30;51893;59.754;10.110;2022-07-10T08:10:17;19.16;40.21
65291;SHT30;51893;59.754;10.110;2022-07-10T08:12:47;19.15;40.27
65291;SHT30;51893;59.754;10.110;2022-07-10T08:15:15;19.25;40.43
65291;SHT30;51893;59.754;10.110;2022-07-10T08:17:48;19.38;40.30
65291;SHT30;51893;59.754;10.110;2022-07-10T08:20:21;19.53;39.80
65291;SHT30;51893;59.754;10.110;2022-07-10T08:22:50;19.50;39.43
65291;SHT30;51893;59.754;10.110;2022-07-10T08:25:26;19.55;39.41
65291;SHT30;51893;59.754;10.110;2022-07-10T08:27:59;19.57;39.32
65291;SHT30;51893;59.754;10.110;2022-07-10T08:30:27;19.53;39.43
65291;SHT30;51893;59.754;10.110;2022-07-10T08:32:54;19.61;39.42
65291;SHT30;51893;59.754;10.110;2022-07-10T08:35:21;19.64;39.93
65291;SHT30;51893;59.754;10.110;2022-07-10T08:37:48;19.64;39.68
65291;SHT30;51893;59.754;10.110;2022-07-10T08:40:15;19.61;39.69
65291;SHT30;51893;59.754;10.110;2022-07-10T08:42:44;19.59;40.64
65291;SHT30;51893;59.754;10.110;2022-07-10T08:45:12;19.62;40.08
65291;SHT30;51893;59.754;10.110;2022-07-10T08:47:39;19.67;39.37
65291;SHT30;51893;59.754;10.110;2022-07-10T08:50:13;19.77;38.27
65291;SHT30;51893;59.754;10.110;2022-07-10T08:52:43;19.87;38.31
65291;SHT30;51893;59.754;10.110;2022-07-10T08:55:28;19.85;37.77
65291;SHT30;51893;59.754;10.110;2022-07-10T08:57:55;19.79;37.88
65291;SHT30;51893;59.754;10.110;2022-07-10T09:00:22;19.76;38.20
65291;SHT30;51893;59.754;10.110;2022-07-10T09:02:50;19.81;38.68
65291;SHT30;51893;59.754;10.110;2022-07-10T09:05:16;19.88;38.39
65291;SHT30;51893;59.754;10.110;2022-07-10T09:07:43;19.93;37.36
65291;SHT30;51893;59.754;10.110;2022-07-10T09:10:10;19.98;38.09
65291;SHT30;51893;59.754;10.110;2022-07-10T09:12:48;20.13;37.98
65291;SHT30;51893;59.754;10.110;2022-07-10T09:15:19;20.29;37.93
65291;SHT30;51893;59.754;10.110;2022-07-10T09:17:51;20.43;37.84
65291;SHT30;51893;59.754;10.110;2022-07-10T09:20:34;20.39;37.44
65291;SHT30;51893;59.754;10.110;2022-07-10T09:23:19;20.45;37.41
65291;SHT30;51893;59.754;10.110;2022-07-10T09:25:49;20.51;37.16
65291;SHT30;51893;59.754;10.110;2022-07-10T09:28:18;20.61;37.34
65291;SHT30;51893;59.754;10.110;2022-07-10T09:30:47;20.72;37.23
65291;SHT30;51893;59.754;10.110;2022-07-10T09:33:25;20.77;36.50
65291;SHT30;51893;59.754;10.110;2022-07-10T09:36:09;20.69;36.83
65291;SHT30;51893;59.754;10.110;2022-07-10T09:43:56;20.58;37.43
65291;SHT30;51893;59.754;10.110;2022-07-10T09:46:33;20.68;36.89
65291;SHT30;51893;59.754;10.110;2022-07-10T09:49:11;20.76;36.90
65291;SHT30;51893;59.754;10.110;2022-07-10T09:51:40;20.93;37.46
65291;SHT30;51893;59.754;10.110;2022-07-10T09:54:15;21.02;37.21
65291;SHT30;51893;59.754;10.110;2022-07-10T09:56:44;21.11;35.82
65291;SHT30;51893;59.754;10.110;2022-07-10T09:59:14;21.16;35.93
65291;SHT30;51893;59.754;10.110;2022-07-10T10:01:44;21.24;35.66
65291;SHT30;51893;59.754;10.110;2022-07-10T10:04:14;21.22;35.26
65291;SHT30;51893;59.754;10.110;2022-07-10T10:06:52;21.10;35.77
65291;SHT30;51893;59.754;10.110;2022-07-10T10:09:24;21.18;36.43
65291;SHT30;51893;59.754;10.110;2022-07-10T10:12:06;21.31;35.71
65291;SHT30;51893;59.754;10.110;2022-07-10T10:14:42;21.49;35.72
65291;SHT30;51893;59.754;10.110;2022-07-10T10:17:10;21.55;35.09
65291;SHT30;51893;59.754;10.110;2022-07-10T10:19:39;21.46;35.33
65291;SHT30;51893;59.754;10.110;2022-07-10T10:22:25;21.37;35.14
65291;SHT30;51893;59.754;10.110;2022-07-10T10:24:53;21.16;35.01
65291;SHT30;51893;59.754;10.110;2022-07-10T10:27:21;21.10;35.46
65291;SHT30;51893;59.754;10.110;2022-07-10T10:29:50;21.09;35.34
65291;SHT30;51893;59.754;10.110;2022-07-10T10:32:18;21.26;35.40
65291;SHT30;51893;59.754;10.110;2022-07-10T10:34:45;21.50;35.19
65291;SHT30;51893;59.754;10.110;2022-07-10T10:37:38;21.65;34.54
65291;SHT30;51893;59.754;10.110;2022-07-10T10:40:11;21.81;35.07
65291;SHT30;51893;59.754;10.110;2022-07-10T10:42:58;22.03;35.20
65291;SHT30;51893;59.754;10.110;2022-07-10T10:45:43;22.08;34.71
65291;SHT30;51893;59.754;10.110;2022-07-10T10:48:11;22.12;33.96
65291;SHT30;51893;59.754;10.110;2022-07-10T10:51:01;22.27;34.37
65291;SHT30;51893;59.754;10.110;2022-07-10T10:53:28;22.41;34.37
65291;SHT30;51893;59.754;10.110;2022-07-10T11:00:08;22.72;33.91
65291;SHT30;51893;59.754;10.110;2022-07-10T11:02:40;22.80;33.66
65291;SHT30;51893;59.754;10.110;2022-07-10T11:15:31;23.01;33.31
65291;SHT30;51893;59.754;10.110;2022-07-10T11:18:12;23.09;32.89
65291;SHT30;51893;59.754;10.110;2022-07-10T11:20:42;23.23;32.42
65291;SHT30;51893;59.754;10.110;2022-07-10T11:26:12;22.95;32.45
65291;SHT30;51893;59.754;10.110;2022-07-10T11:28:54;22.77;32.77
65291;SHT30;51893;59.754;10.110;2022-07-10T11:31:27;22.87;33.08
65291;SHT30;51893;59.754;10.110;2022-07-10T11:33:58;22.88;33.06
65291;SHT30;51893;59.754;10.110;2022-07-10T11:36:26;22.77;33.27
65291;SHT30;51893;59.754;10.110;2022-07-10T11:39:02;22.82;33.34
65291;SHT30;51893;59.754;10.110;2022-07-10T11:41:32;23.06;34.35
65291;SHT30;51893;59.754;10.110;2022-07-10T11:44:02;23.35;33.85
65291;SHT30;51893;59.754;10.110;2022-07-10T11:46:34;23.12;32.82
65291;SHT30;51893;59.754;10.110;2022-07-10T11:49:03;22.89;32.77
65291;SHT30;51893;59.754;10.110;2022-07-10T11:51:34;22.73;33.50
65291;SHT30;51893;59.754;10.110;2022-07-10T11:54:05;22.58;33.20
65291;SHT30;51893;59.754;10.110;2022-07-10T11:56:40;22.43;33.64
65291;SHT30;51893;59.754;10.110;2022-07-10T11:59:14;22.48;33.77
65291;SHT30;51893;59.754;10.110;2022-07-10T12:01:44;22.79;33.96
65291;SHT30;51893;59.754;10.110;2022-07-10T12:04:16;23.14;33.84
65291;SHT30;51893;59.754;10.110;2022-07-10T12:06:47;23.29;33.39
65291;SHT30;51893;59.754;10.110;2022-07-10T12:09:17;23.37;33.26
65291;SHT30;51893;59.754;10.110;2022-07-10T12:12:03;23.38;32.96
65291;SHT30;51893;59.754;10.110;2022-07-10T12:14:34;23.38;33.06
65291;SHT30;51893;59.754;10.110;2022-07-10T12:17:03;23.26;33.11
65291;SHT30;51893;59.754;10.110;2022-07-10T12:19:39;23.38;32.63
65291;SHT30;51893;59.754;10.110;2022-07-10T12:22:08;23.35;32.00
65291;SHT30;51893;59.754;10.110;2022-07-10T12:24:36;23.56;32.20
65291;SHT30;51893;59.754;10.110;2022-07-10T12:27:04;23.63;31.89
65291;SHT30;51893;59.754;10.110;2022-07-10T12:29:34;23.82;32.08
65291;SHT30;51893;59.754;10.110;2022-07-10T12:32:02;23.85;31.72
65291;SHT30;51893;59.754;10.110;2022-07-10T12:34:35;23.76;31.33
65291;SHT30;51893;59.754;10.110;2022-07-10T12:37:07;23.80;31.57
65291;SHT30;51893;59.754;10.110;2022-07-10T12:39:37;23.83;30.87
65291;SHT30;51893;59.754;10.110;2022-07-10T12:42:24;23.77;31.23
65291;SHT30;51893;59.754;10.110;2022-07-10T12:44:53;24.08;31.93
65291;SHT30;51893;59.754;10.110;2022-07-10T12:47:22;24.34;31.48
65291;SHT30;51893;59.754;10.110;2022-07-10T12:49:53;24.38;31.24
65291;SHT30;51893;59.754;10.110;2022-07-10T12:52:32;24.20;31.30
65291;SHT30;51893;59.754;10.110;2022-07-10T13:00:28;24.18;30.61
65291;SHT30;51893;59.754;10.110;2022-07-10T13:03:10;24.08;30.93
65291;SHT30;51893;59.754;10.110;2022-07-10T13:05:40;24.14;31.18
65291;SHT30;51893;59.754;10.110;2022-07-10T13:08:19;24.32;30.80
65291;SHT30;51893;59.754;10.110;2022-07-10T13:10:54;24.66;30.74
65291;SHT30;51893;59.754;10.110;2022-07-10T13:13:28;24.97;31.13
65291;SHT30;51893;59.754;10.110;2022-07-10T13:15:58;25.32;31.89
65291;SHT30;51893;59.754;10.110;2022-07-10T13:18:27;25.23;30.69
65291;SHT30;51893;59.754;10.110;2022-07-10T13:20:56;25.01;31.10
65291;SHT30;51893;59.754;10.110;2022-07-10T13:23:29;24.99;30.79
65291;SHT30;51893;59.754;10.110;2022-07-10T13:25:57;24.77;30.44
65291;SHT30;51893;59.754;10.110;2022-07-10T13:28:27;24.85;32.20
65291;SHT30;51893;59.754;10.110;2022-07-10T13:30:55;25.01;32.75
65291;SHT30;51893;59.754;10.110;2022-07-10T13:33:23;25.03;32.66
65291;SHT30;51893;59.754;10.110;2022-07-10T13:35:51;25.34;32.75
65291;SHT30;51893;59.754;10.110;2022-07-10T13:38:19;25.62;32.13
65291;SHT30;51893;59.754;10.110;2022-07-10T13:40:48;25.61;31.56
65291;SHT30;51893;59.754;10.110;2022-07-10T13:43:16;25.82;32.23
65291;SHT30;51893;59.754;10.110;2022-07-10T13:45:44;25.83;31.48
65291;SHT30;51893;59.754;10.110;2022-07-10T13:48:12;25.65;31.62
65291;SHT30;51893;59.754;10.110;2022-07-10T13:50:43;25.50;31.92
65291;SHT30;51893;59.754;10.110;2022-07-10T13:53:17;25.76;32.03
65291;SHT30;51893;59.754;10.110;2022-07-10T13:55:45;26.06;31.28
65291;SHT30;51893;59.754;10.110;2022-07-10T13:58:14;26.22;30.64
65291;SHT30;51893;59.754;10.110;2022-07-10T14:00:43;26.41;30.28
65291;SHT30;51893;59.754;10.110;2022-07-10T14:03:12;26.55;30.94
65291;SHT30;51893;59.754;10.110;2022-07-10T14:05:39;26.77;30.89
65291;SHT30;51893;59.754;10.110;2022-07-10T14:08:07;26.96;31.04
65291;SHT30;51893;59.754;10.110;2022-07-10T14:10:35;27.00;30.59
65291;SHT30;51893;59.754;10.110;2022-07-10T14:13:03;27.11;30.78
65291;SHT30;51893;59.754;10.110;2022-07-10T14:15:38;27.00;30.34
65291;SHT30;51893;59.754;10.110;2022-07-10T14:18:08;26.81;30.68
65291;SHT30;51893;59.754;10.110;2022-07-10T14:20:36;26.58;31.18
65291;SHT30;51893;59.754;10.110;2022-07-10T14:23:23;26.50;31.08
65291;SHT30;51893;59.754;10.110;2022-07-10T14:25:51;26.06;30.57
65291;SHT30;51893;59.754;10.110;2022-07-10T14:28:20;25.64;30.38
65291;SHT30;51893;59.754;10.110;2022-07-10T14:30:48;25.35;30.71
65291;SHT30;51893;59.754;10.110;2022-07-10T14:33:18;25.42;31.96
65291;SHT30;51893;59.754;10.110;2022-07-10T14:35:46;25.65;31.88
65291;SHT30;51893;59.754;10.110;2022-07-10T14:38:14;25.61;31.60
65291;SHT30;51893;59.754;10.110;2022-07-10T14:40:42;25.56;31.63
65291;SHT30;51893;59.754;10.110;2022-07-10T14:43:10;25.72;31.77
65291;SHT30;51893;59.754;10.110;2022-07-10T14:45:38;25.70;31.10
65291;SHT30;51893;59.754;10.110;2022-07-10T14:48:20;25.37;31.01
65291;SHT30;51893;59.754;10.110;2022-07-10T14:50:48;25.06;31.57
65291;SHT30;51893;59.754;10.110;2022-07-10T14:53:15;24.77;31.70
65291;SHT30;51893;59.754;10.110;2022-07-10T14:55:43;24.62;32.24
65291;SHT30;51893;59.754;10.110;2022-07-10T14:58:11;24.40;32.38
65291;SHT30;51893;59.754;10.110;2022-07-10T15:00:39;24.25;32.51
65291;SHT30;51893;59.754;10.110;2022-07-10T15:03:07;24.18;32.65
65291;SHT30;51893;59.754;10.110;2022-07-10T15:05:34;24.10;32.50
65291;SHT30;51893;59.754;10.110;2022-07-10T15:08:02;24.12;33.43
65291;SHT30;51893;59.754;10.110;2022-07-10T15:10:31;24.12;33.03
65291;SHT30;51893;59.754;10.110;2022-07-10T15:13:00;24.16;32.82
65291;SHT30;51893;59.754;10.110;2022-07-10T15:15:32;24.20;32.93
65291;SHT30;51893;59.754;10.110;2022-07-10T15:18:01;24.30;32.80
65291;SHT30;51893;59.754;10.110;2022-07-10T15:20:29;24.23;33.26
65291;SHT30;51893;59.754;10.110;2022-07-10T15:22:57;24.14;33.24
65291;SHT30;51893;59.754;10.110;2022-07-10T15:25:25;24.06;33.13
65291;SHT30;51893;59.754;10.110;2022-07-10T15:27:53;24.08;33.51
65291;SHT30;51893;59.754;10.110;2022-07-10T15:30:21;24.06;33.49
65291;SHT30;51893;59.754;10.110;2022-07-10T15:32:49;24.01;33.13
65291;SHT30;51893;59.754;10.110;2022-07-10T15:35:19;23.97;33.24
65291;SHT30;51893;59.754;10.110;2022-07-10T15:37:47;24.07;33.13
65291;SHT30;51893;59.754;10.110;2022-07-10T15:40:14;24.08;33.20
65291;SHT30;51893;59.754;10.110;2022-07-10T15:42:43;24.19;33.01
65291;SHT30;51893;59.754;10.110;2022-07-10T15:45:11;24.29;33.09
65291;SHT30;51893;59.754;10.110;2022-07-10T15:47:41;24.19;32.89
65291;SHT30;51893;59.754;10.110;2022-07-10T15:50:08;24.08;33.17
65291;SHT30;51893;59.754;10.110;2022-07-10T15:52:36;24.04;33.30
65291;SHT30;51893;59.754;10.110;2022-07-10T15:55:04;24.28;33.13